createdAt,value
2022-09-28T00:00:09.935Z,19.45
2022-09-28T00:03:15.853Z,27.93
2022-09-28T00:06:22.769Z,25.60
2022-09-28T00:09:31.994Z,37.78
2022-09-28T00:12:38.030Z,26.20
2022-09-28T00:15:45.953Z,28.83
2022-09-28T00:18:52.892Z,27.50
2022-09-28T00:21:59.415Z,25.45
2022-09-28T00:25:06.615Z,23.52
2022-09-28T00:28:13.471Z,21.62
2022-09-28T00:31:18.711Z,21.80
2022-09-28T00:34:23.947Z,20.90
2022-09-28T00:37:30.751Z,24.00
2022-09-28T00:40:36.393Z,23.42
2022-09-28T00:43:42.927Z,19.37
2022-09-28T00:46:49.372Z,25.50
2022-09-28T00:50:06.500Z,23.98
2022-09-28T00:53:38.650Z,22.42
2022-09-28T00:56:45.930Z,27.77
2022-09-28T00:59:51.295Z,24.70
2022-09-28T01:02:57.564Z,17.45
2022-09-28T01:06:05.554Z,17.45
2022-09-28T01:09:13.130Z,18.70
2022-09-28T01:12:20.258Z,19.42
2022-09-28T01:15:28.546Z,22.67
2022-09-28T01:18:41.834Z,23.95
2022-09-28T01:22:01.759Z,22.55
2022-09-28T01:25:21.567Z,22.70
2022-09-28T01:28:30.211Z,22.80
2022-09-28T01:31:36.126Z,22.77
2022-09-28T01:35:08.305Z,23.38
2022-09-28T01:38:21.976Z,22.10
2022-09-28T01:41:27.943Z,25.55
2022-09-28T01:44:35.502Z,21.70
2022-09-28T01:47:41.218Z,26.10
2022-09-28T01:50:51.535Z,30.85
2022-09-28T01:54:00.256Z,26.55
2022-09-28T01:57:30.192Z,27.50
2022-09-28T02:00:34.930Z,28.07
2022-09-28T02:03:44.136Z,29.65
2022-09-28T02:06:53.598Z,27.37
2022-09-28T02:10:06.506Z,28.95
2022-09-28T02:13:20.021Z,29.18
2022-09-28T02:16:49.952Z,27.65
2022-09-28T02:19:58.468Z,30.43
2022-09-28T02:23:11.308Z,26.97
2022-09-28T02:26:20.621Z,25.43
2022-09-28T02:29:27.274Z,29.32
2022-09-28T02:32:32.118Z,29.52
2022-09-28T02:35:37.838Z,30.70
2022-09-28T02:38:42.563Z,29.25
2022-09-28T02:42:12.613Z,29.72
2022-09-28T02:46:04.637Z,28.67
2022-09-28T02:50:01.109Z,24.15
2022-09-28T02:53:59.575Z,26.17
2022-09-28T02:57:17.544Z,21.10
2022-09-28T03:00:33.820Z,23.90
2022-09-28T03:03:54.529Z,23.38
2022-09-28T03:07:28.566Z,26.05
2022-09-28T03:10:45.606Z,28.73
2022-09-28T03:13:51.377Z,26.77
2022-09-28T03:17:00.016Z,25.45
2022-09-28T03:20:06.203Z,26.23
2022-09-28T03:23:24.371Z,26.55
2022-09-28T03:26:21.320Z,25.02
2022-09-28T03:29:27.945Z,26.82
2022-09-28T03:32:37.542Z,27.77
2022-09-28T03:35:44.246Z,25.43
2022-09-28T03:38:49.688Z,25.45
2022-09-28T03:41:57.696Z,23.50
2022-09-28T03:45:06.857Z,25.23
2022-09-28T03:48:11.709Z,26.93
2022-09-28T03:51:20.374Z,24.20
2022-09-28T03:54:27.009Z,28.07
2022-09-28T03:57:33.016Z,25.32
2022-09-28T04:00:38.490Z,25.82
2022-09-28T04:03:44.546Z,27.85
2022-09-28T04:06:51.050Z,27.45
2022-09-28T04:09:59.167Z,30.00
2022-09-28T04:13:04.644Z,28.20
2022-09-28T04:16:15.832Z,23.55
2022-09-28T04:19:23.008Z,26.35
2022-09-28T04:22:44.224Z,25.02
2022-09-28T04:25:52.692Z,24.70
2022-09-28T04:29:19.615Z,23.30
2022-09-28T04:32:29.398Z,22.50
2022-09-28T04:35:35.929Z,20.57
2022-09-28T04:38:52.887Z,21.27
2022-09-28T04:41:49.442Z,20.20
2022-09-28T04:44:55.906Z,23.87
2022-09-28T04:48:03.556Z,24.00
2022-09-28T04:51:30.443Z,27.62
2022-09-28T04:54:35.450Z,28.85
2022-09-28T04:57:41.263Z,25.48
2022-09-28T05:00:47.109Z,28.05
2022-09-28T05:04:04.914Z,27.93
2022-09-28T05:07:21.838Z,26.48
2022-09-28T05:10:31.431Z,28.52
2022-09-28T05:13:36.864Z,31.20
2022-09-28T05:16:43.784Z,30.48
2022-09-28T05:19:57.668Z,31.00
2022-09-28T05:23:06.319Z,29.45
2022-09-28T05:26:15.309Z,29.15
2022-09-28T05:29:20.099Z,46.42
2022-09-28T05:36:02.106Z,32.70
2022-09-28T05:39:10.511Z,34.58
2022-09-28T05:42:16.859Z,33.18
2022-09-28T05:45:27.087Z,38.23
2022-09-28T05:48:35.112Z,33.07
2022-09-28T05:51:40.979Z,35.92
2022-09-28T05:54:46.952Z,47.40
2022-09-28T05:57:51.712Z,40.25
2022-09-28T06:00:58.802Z,30.10
2022-09-28T06:04:04.550Z,32.10
2022-09-28T06:07:13.933Z,28.65
2022-09-28T06:10:19.637Z,28.47
2022-09-28T06:13:28.278Z,28.00
2022-09-28T06:16:33.969Z,30.50
2022-09-28T06:19:47.518Z,28.10
2022-09-28T06:23:03.143Z,25.50
2022-09-28T06:26:09.562Z,28.83
2022-09-28T06:29:19.608Z,27.10
2022-09-28T06:32:25.019Z,29.10
2022-09-28T06:35:33.067Z,33.80
2022-09-28T06:38:41.098Z,28.98
2022-09-28T06:41:48.267Z,30.60
2022-09-28T06:44:53.975Z,29.10
2022-09-28T06:48:13.262Z,31.55
2022-09-28T06:51:24.112Z,31.50
2022-09-28T06:54:32.768Z,29.95
2022-09-28T06:57:45.134Z,31.68
2022-09-28T07:01:05.414Z,27.02
2022-09-28T07:04:22.149Z,26.95
2022-09-28T07:07:52.324Z,36.68
2022-09-28T07:11:16.394Z,33.90
2022-09-28T07:14:44.974Z,31.23
2022-09-28T07:17:45.945Z,32.50
2022-09-28T07:20:53.547Z,37.15
2022-09-28T07:23:55.907Z,28.17
2022-09-28T07:27:11.274Z,27.50
2022-09-28T07:30:31.181Z,29.18
2022-09-28T07:33:41.308Z,27.27
2022-09-28T07:36:49.860Z,26.45
2022-09-28T07:40:14.001Z,27.50
2022-09-28T07:43:36.050Z,29.30
2022-09-28T07:46:51.276Z,27.37
2022-09-28T07:50:15.020Z,31.12
2022-09-28T07:53:28.467Z,26.47
2022-09-28T07:56:49.230Z,25.57
2022-09-28T08:00:03.528Z,27.52
2022-09-28T08:03:17.701Z,26.65
2022-09-28T08:06:26.990Z,24.18
2022-09-28T08:09:35.035Z,26.55
2022-09-28T08:12:59.276Z,28.38
2022-09-28T08:16:22.112Z,27.67
2022-09-28T08:19:33.105Z,33.02
2022-09-28T08:22:41.694Z,28.95
2022-09-28T08:25:47.766Z,28.57
2022-09-28T08:28:54.624Z,29.32
2022-09-28T08:32:20.375Z,26.35
2022-09-28T08:35:28.759Z,28.57
2022-09-28T08:38:56.079Z,32.50
2022-09-28T08:42:18.079Z,26.85
2022-09-28T08:45:43.306Z,25.10
2022-09-28T08:49:24.964Z,26.00
2022-09-28T08:52:33.538Z,25.75
2022-09-28T08:55:51.683Z,23.50
2022-09-28T08:58:59.446Z,24.77
2022-09-28T09:02:16.744Z,24.87
2022-09-28T09:05:27.165Z,22.25
2022-09-28T09:08:56.769Z,27.60
2022-09-28T09:12:23.206Z,22.77
2022-09-28T09:15:43.109Z,30.88
2022-09-28T09:19:05.345Z,25.45
2022-09-28T09:25:42.657Z,22.00
2022-09-28T09:29:18.489Z,21.30
2022-09-28T09:32:48.089Z,22.05
2022-09-28T09:36:13.724Z,22.77
2022-09-28T09:40:00.258Z,22.13
2022-09-28T09:44:05.572Z,19.32
2022-09-28T09:47:40.437Z,21.60
2022-09-28T09:51:03.186Z,22.13
2022-09-28T09:54:18.695Z,24.00
2022-09-28T09:57:33.233Z,21.87
2022-09-28T10:00:47.239Z,22.42
2022-09-28T10:04:00.162Z,22.10
2022-09-28T10:07:16.424Z,21.62
2022-09-28T10:13:36.280Z,23.00
2022-09-28T10:16:43.166Z,25.77
2022-09-28T10:19:52.629Z,26.27
2022-09-28T10:23:13.481Z,24.02
2022-09-28T10:26:27.921Z,24.50
2022-09-28T10:29:40.565Z,24.65
2022-09-28T10:33:02.318Z,22.70
2022-09-28T10:36:07.505Z,23.18
2022-09-28T10:39:13.293Z,27.60
2022-09-28T10:42:27.064Z,26.77
2022-09-28T10:45:38.191Z,28.27
2022-09-28T10:48:44.833Z,26.77
2022-09-28T10:52:05.788Z,23.80
2022-09-28T10:55:12.503Z,25.45
2022-09-28T10:58:45.045Z,24.23
2022-09-28T11:01:58.715Z,26.75
2022-09-28T11:05:11.499Z,29.95
2022-09-28T11:08:20.300Z,26.60
2022-09-28T11:11:46.383Z,25.52
2022-09-28T11:14:57.176Z,25.65
2022-09-28T11:18:02.057Z,26.60
2022-09-28T11:21:11.210Z,23.25
2022-09-28T11:24:38.880Z,25.37
2022-09-28T11:27:45.606Z,25.35
2022-09-28T11:31:09.021Z,25.15
2022-09-28T11:34:31.009Z,24.75
2022-09-28T11:37:46.595Z,24.95
2022-09-28T11:41:17.256Z,25.27
2022-09-28T11:44:50.975Z,26.07
2022-09-28T11:48:22.554Z,24.57
2022-09-28T11:51:46.850Z,24.02
2022-09-28T11:55:01.270Z,24.67
2022-09-28T11:58:19.260Z,23.52
2022-09-28T12:01:42.437Z,26.62
2022-09-28T12:05:22.179Z,21.02
2022-09-28T12:08:44.277Z,24.90
2022-09-28T12:11:57.638Z,22.42
2022-09-28T12:15:47.248Z,26.10
2022-09-28T12:19:07.153Z,25.23
2022-09-28T12:22:33.570Z,35.25
2022-09-28T12:25:39.421Z,22.98
2022-09-28T12:28:57.978Z,24.67
2022-09-28T12:32:14.707Z,26.02
2022-09-28T12:35:30.959Z,24.47
2022-09-28T12:38:42.315Z,24.75
2022-09-28T12:42:04.773Z,24.82
2022-09-28T12:45:42.982Z,24.85
2022-09-28T12:52:42.966Z,24.72
2022-09-28T12:56:10.654Z,25.32
2022-09-28T12:59:42.237Z,25.45
2022-09-28T13:03:23.266Z,25.48
2022-09-28T13:06:43.039Z,26.02
2022-09-28T13:09:56.728Z,24.18
2022-09-28T13:13:19.975Z,26.70
2022-09-28T13:16:45.211Z,22.37
2022-09-28T13:20:30.275Z,23.35
2022-09-28T13:23:43.090Z,26.37
2022-09-28T13:26:51.476Z,22.52
2022-09-28T13:30:00.043Z,23.85
2022-09-28T13:33:06.171Z,24.18
2022-09-28T13:36:11.389Z,23.95
2022-09-28T13:39:18.433Z,26.35
2022-09-28T13:42:26.419Z,24.98
2022-09-28T13:45:38.806Z,29.52
2022-09-28T13:49:00.075Z,24.10
2022-09-28T13:52:14.429Z,25.92
2022-09-28T13:55:41.007Z,24.55
2022-09-28T13:59:14.159Z,25.72
2022-09-28T14:02:36.719Z,23.50
2022-09-28T14:05:56.940Z,25.48
2022-09-28T14:09:31.754Z,25.68
2022-09-28T14:12:51.344Z,23.52
2022-09-28T14:15:59.246Z,28.15
2022-09-28T14:19:14.353Z,27.07
2022-09-28T14:22:26.291Z,26.33
2022-09-28T14:25:39.348Z,23.75
2022-09-28T14:28:56.120Z,24.70
2022-09-28T14:32:03.330Z,25.35
2022-09-28T14:35:18.718Z,25.68
2022-09-28T14:38:52.335Z,22.62
2022-09-28T14:41:59.404Z,25.08
2022-09-28T14:45:21.092Z,27.00
2022-09-28T14:48:39.702Z,27.00
2022-09-28T14:51:51.131Z,26.90
2022-09-28T14:55:09.809Z,24.85
2022-09-28T14:58:15.557Z,24.82
2022-09-28T15:01:27.911Z,25.57
2022-09-28T15:04:35.061Z,25.95
2022-09-28T15:07:45.371Z,28.17
2022-09-28T15:10:59.396Z,25.23
2022-09-28T15:14:08.242Z,24.50
2022-09-28T15:17:15.060Z,32.80
2022-09-28T15:20:40.399Z,32.30
2022-09-28T15:23:53.729Z,35.90
2022-09-28T15:27:04.091Z,33.33
2022-09-28T15:30:15.009Z,28.32
2022-09-28T15:33:57.094Z,30.15
2022-09-28T15:37:04.105Z,27.65
2022-09-28T15:40:10.551Z,29.75
2022-09-28T15:43:24.437Z,27.45
2022-09-28T15:46:35.918Z,29.80
2022-09-28T15:49:51.253Z,27.73
2022-09-28T15:53:03.067Z,30.02
2022-09-28T15:56:17.965Z,28.90
2022-09-28T15:59:38.551Z,32.75
2022-09-28T16:02:44.182Z,31.50
2022-09-28T16:06:07.872Z,34.70
2022-09-28T16:09:15.825Z,34.15
2022-09-28T16:12:27.306Z,32.42
2022-09-28T16:15:41.216Z,38.67
2022-09-28T16:18:49.344Z,35.03
2022-09-28T16:22:02.736Z,40.88
2022-09-28T16:28:20.828Z,34.97
2022-09-28T16:31:37.159Z,33.23
2022-09-28T16:34:43.525Z,27.60
2022-09-28T16:37:49.354Z,31.17
2022-09-28T16:41:06.346Z,32.15
2022-09-28T16:44:14.792Z,26.93
2022-09-28T16:47:21.521Z,28.73
2022-09-28T16:50:31.965Z,31.17
2022-09-28T16:53:56.453Z,32.15
2022-09-28T16:57:10.201Z,31.05
2022-09-28T17:00:16.554Z,30.40
2022-09-28T17:03:33.847Z,29.52
2022-09-28T17:06:39.783Z,31.70
2022-09-28T17:09:46.745Z,31.68
2022-09-28T17:12:54.347Z,33.60
2022-09-28T17:16:00.790Z,32.78
2022-09-28T17:19:07.916Z,29.80
2022-09-28T17:22:14.537Z,30.35
2022-09-28T17:25:19.390Z,32.63
2022-09-28T17:28:28.976Z,39.95
2022-09-28T17:31:35.612Z,37.30
2022-09-28T17:34:48.305Z,38.75
2022-09-28T17:37:54.036Z,42.55
2022-09-28T17:41:02.393Z,49.35
2022-09-28T17:44:11.240Z,42.13
2022-09-28T17:47:16.914Z,47.48
2022-09-28T17:50:36.082Z,55.70
2022-09-28T17:53:43.377Z,53.65
2022-09-28T17:56:49.342Z,57.95
2022-09-28T17:59:55.814Z,54.20
2022-09-28T18:03:03.233Z,61.80
2022-09-28T18:06:21.283Z,81.80
2022-09-28T18:09:32.813Z,76.35
2022-09-28T18:12:42.732Z,80.40
2022-09-28T18:15:50.546Z,88.25
2022-09-28T18:18:56.455Z,82.88
2022-09-28T18:22:05.260Z,83.45
2022-09-28T18:25:12.778Z,85.12
2022-09-28T18:28:18.030Z,85.72
2022-09-28T18:31:26.862Z,82.08
2022-09-28T18:34:33.305Z,89.47
2022-09-28T18:37:40.049Z,89.67
2022-09-28T18:40:45.604Z,86.65
2022-09-28T18:43:52.634Z,89.05
2022-09-28T18:46:59.341Z,91.22
2022-09-28T18:50:05.892Z,88.25
2022-09-28T18:53:21.264Z,91.20
2022-09-28T18:56:29.525Z,84.40
2022-09-28T18:59:37.962Z,104.90
2022-09-28T19:02:45.100Z,98.97
2022-09-28T19:05:54.116Z,95.00
2022-09-28T19:08:59.798Z,85.25
2022-09-28T19:12:07.038Z,96.30
2022-09-28T19:15:13.253Z,79.92
2022-09-28T19:18:18.329Z,76.15
2022-09-28T19:21:27.640Z,74.12
2022-09-28T19:24:36.994Z,67.10
2022-09-28T19:27:45.637Z,62.45
2022-09-28T19:30:50.898Z,61.77
2022-09-28T19:33:59.210Z,56.42
2022-09-28T19:37:06.625Z,55.52
2022-09-28T19:40:15.821Z,50.52
2022-09-28T19:43:22.660Z,44.45
2022-09-28T19:46:23.025Z,45.03
2022-09-28T19:49:30.742Z,51.50
2022-09-28T19:52:36.177Z,40.73
2022-09-28T19:55:48.151Z,39.98
2022-09-28T19:58:55.059Z,43.13
2022-09-28T20:02:03.122Z,38.38
2022-09-28T20:05:09.413Z,40.78
2022-09-28T20:08:16.097Z,42.35
2022-09-28T20:11:22.905Z,38.88
2022-09-28T20:14:33.125Z,39.33
2022-09-28T20:17:38.156Z,39.85
2022-09-28T20:20:44.975Z,41.02
2022-09-28T20:23:51.976Z,40.12
2022-09-28T20:26:58.201Z,43.17
2022-09-28T20:30:05.724Z,43.02
2022-09-28T20:33:19.153Z,38.02
2022-09-28T20:36:24.767Z,38.60
2022-09-28T20:39:31.372Z,35.17
2022-09-28T20:42:38.303Z,42.85
2022-09-28T20:45:46.558Z,39.05
2022-09-28T20:48:54.678Z,33.35
2022-09-28T20:52:00.694Z,36.42
2022-09-28T20:55:10.745Z,40.05
2022-09-28T20:58:18.486Z,40.60
2022-09-28T21:01:29.695Z,36.15
2022-09-28T21:04:35.558Z,36.28
2022-09-28T21:07:40.901Z,37.17
2022-09-28T21:10:48.057Z,34.33
2022-09-28T21:13:54.218Z,33.65
2022-09-28T21:17:00.939Z,36.75
2022-09-28T21:20:07.950Z,36.98
2022-09-28T21:23:14.350Z,39.27
2022-09-28T21:26:27.171Z,50.17
2022-09-28T21:29:33.381Z,36.35
2022-09-28T21:32:38.233Z,38.05
2022-09-28T21:35:45.779Z,38.58
2022-09-28T21:38:51.243Z,36.60
2022-09-28T21:41:57.403Z,45.03
2022-09-28T21:45:02.782Z,40.40
2022-09-28T21:48:08.922Z,44.10
2022-09-28T21:51:21.824Z,41.75
2022-09-28T21:54:26.598Z,40.05
2022-09-28T21:57:33.191Z,46.80
2022-09-28T22:00:42.020Z,42.75
2022-09-28T22:03:49.685Z,42.38
2022-09-28T22:06:56.365Z,42.90
2022-09-28T22:10:04.461Z,43.68
2022-09-28T22:13:09.718Z,46.83
2022-09-28T22:16:17.856Z,44.70
2022-09-28T22:19:23.926Z,47.93
2022-09-28T22:22:29.333Z,46.02
2022-09-28T22:25:35.854Z,45.12
2022-09-28T22:28:41.772Z,43.95
2022-09-28T22:31:52.522Z,39.42
2022-09-28T22:35:00.683Z,38.65
2022-09-28T22:38:06.393Z,40.35
2022-09-28T22:41:11.721Z,36.77
2022-09-28T22:44:18.146Z,39.00
2022-09-28T22:47:24.595Z,36.45
2022-09-28T22:50:30.156Z,34.43
2022-09-28T22:53:36.052Z,36.33
2022-09-28T22:56:42.282Z,39.10
2022-09-28T22:59:47.689Z,37.20
2022-09-28T23:02:54.898Z,40.98
2022-09-28T23:06:11.756Z,32.85
2022-09-28T23:09:17.782Z,35.43
2022-09-28T23:12:24.193Z,39.20
2022-09-28T23:15:30.300Z,37.80
2022-09-28T23:18:36.453Z,58.55
2022-09-28T23:21:42.040Z,98.97
2022-09-28T23:24:49.829Z,118.40
2022-09-28T23:28:01.258Z,158.03
2022-09-28T23:31:07.665Z,96.92
2022-09-28T23:34:20.101Z,111.95
2022-09-28T23:37:26.566Z,77.80
2022-09-28T23:40:32.279Z,82.22
2022-09-28T23:43:38.222Z,92.22
2022-09-28T23:46:43.848Z,80.57
2022-09-28T23:49:49.921Z,73.02
2022-09-28T23:52:56.531Z,86.35
2022-09-28T23:56:03.610Z,62.45
2022-09-28T23:59:09.954Z,55.10
